Aérodrome :
LOGIN :

S'inscrire | Disclaimer

   EN    FR    IT 

 










Légende :    VFR   VFR Marginal   IFR   IFR Intensif   IFR Très Intensif
Visi : 
Plafond : 
>= 8 km
>= 3000ft
5 à 8 km
1000 à 3000 ft
1500m à 5 km
500 à 1000 ft
800 à 1500m
200 à 500 ft
< 800m
< 200 ft
Symboles :   Orages  Brouillard  Fortes neiges  Fortes précipitations  Vent > 20 kt
SIGMETs :   Divers  Orages  Givrage  Turbulence  Onde Orograph.  Cendres Volcan.







- Altitude de l'aérodrome : 82 ft
- Code IATA : ALG


DAAG - Alger Houari Boumedienne

DERNIER METAR :
  • 140800Z 17004KT 9999 FEW020 06/04 Q1023

METARs EXPIRÉS :
  • 140730Z VRB01KT 9999 FEW020 SCT200 04/03 Q1023
  • 140700Z 00000KT 9999 FEW020 SCT200 03/02 Q1024
  • 140630Z 18003KT 9999 FEW020 03/02 Q1024
  • 140600Z 22003KT 190V250 CAVOK 03/02 Q1024
  • 140530Z 23003KT 200V260 CAVOK 04/02 Q1024

TAF TAF DAAG
Valide du 14 à 06h jusqu'au 15 à 06h UTC


140500Z 1406/1506 VRB02KT 9999 FEW026
TEMPO 1406/1410 21010KT
BECMG 1410/1413 34010KT
BECMG 1416/1419 VRB02KT
Pas de NOTAMs connus pour ce terrain.
1 SIGMET publié pour la FIR Alger (DAAA) :
 
Orages noyés dans la masse
DAAA SIGMET 1 VALID 140500/140900 DAMM
DAAA ALGIERS FIR EMBD TS FCST WI N2412 E00520 - N2454 E00805 - N2302 E00940 - N1924 E00313 - N2119 E00053 - N2412 E00520 TOP FL380 MOV NE 25KT NC=



MET'MAP, la Météo Aéronautique d'un coup d'oeil ! - Copyright ORBIFLY Décembre 2007 - Disclaimer

ORBIFLY MET'MAP TEAM :

Programmation & Développement : Alexandra Zaïnal
Conception & Développement : Baudouin d'Aumeries
Co-Programmation & Développement : Marc-Olivier Méhu
Soutien technique & logistique : Manuel Goepfert

Contact : metmap@orbifly.com




SOURCES & CREDITS :

   NOAA